Time;durP1;ratioP1;P1;durP2;ratioP2;P2;SDS_P1;SDS_P2;PMS_P1;PMS_P2;Temp;Humidity;BMP_temperature;BMP_pressure;BME280_temperature;BME280_humidity;BME280_pressure;Samples;Min_cycle;Max_cycle;Signal;HPM_P1;HPM_P2
2023/04/02 00:01:36;;;;;;;1.97;1.87;;;9.10;99.90;;;;;;5015956;28;20791;-68
2023/04/02 00:04:21;;;;;;;1.80;1.70;;;9.10;99.90;;;;;;5013160;28;20517;-69
2023/04/02 00:06:53;;;;;;;2.23;2.13;;;9.10;99.90;;;;;;5032192;28;20450;-69
2023/04/02 00:09:33;;;;;;;1.77;1.67;;;9.10;99.90;;;;;;5032084;28;20458;-68
2023/04/02 00:12:14;;;;;;;1.87;1.77;;;9.10;99.90;;;;;;5032352;28;20546;-69
2023/04/02 00:14:47;;;;;;;3.10;1.97;;;9.20;99.90;;;;;;5024965;28;20490;-68
2023/04/02 00:17:14;;;;;;;1.90;1.80;;;9.20;99.90;;;;;;5026537;28;20462;-69
2023/04/02 00:19:46;;;;;;;1.87;1.77;;;9.20;99.90;;;;;;5023986;28;20462;-69
2023/04/02 00:22:18;;;;;;;1.80;1.70;;;9.20;99.90;;;;;;5031829;28;20516;-69
2023/04/02 00:24:49;;;;;;;2.13;2.00;;;9.20;99.90;;;;;;5031058;28;20899;-69
2023/04/02 00:27:16;;;;;;;2.70;1.90;;;9.20;99.90;;;;;;5032334;28;20485;-69
2023/04/02 00:29:47;;;;;;;3.27;2.20;;;9.20;99.90;;;;;;5031847;28;21012;-69
2023/04/02 00:32:21;;;;;;;1.80;1.70;;;9.20;99.90;;;;;;5032308;28;20498;-69
2023/04/02 00:34:47;;;;;;;1.80;1.70;;;9.30;99.90;;;;;;5017019;28;20486;-69
2023/04/02 00:37:22;;;;;;;2.60;2.40;;;9.30;99.90;;;;;;5018916;28;20463;-69
2023/04/02 00:39:52;;;;;;;2.67;2.47;;;9.30;99.90;;;;;;5032005;28;20453;-69
2023/04/02 00:42:21;;;;;;;4.63;2.53;;;9.30;99.90;;;;;;5026957;28;20936;-69
2023/04/02 00:44:49;;;;;;;2.27;2.10;;;9.30;99.90;;;;;;5023762;28;20487;-68
2023/04/02 00:47:19;;;;;;;2.63;2.50;;;9.30;99.90;;;;;;5016132;28;20447;-68
2023/04/02 00:49:48;;;;;;;2.70;2.50;;;9.20;99.90;;;;;;5023178;28;20451;-68
2023/04/02 00:52:18;;;;;;;3.00;2.20;;;9.20;99.90;;;;;;5028057;28;20489;-69
2023/04/02 00:54:49;;;;;;;2.57;2.37;;;9.20;99.90;;;;;;5031563;28;20474;-68
2023/04/02 00:57:22;;;;;;;2.17;2.07;;;9.20;99.90;;;;;;5031768;28;20454;-68
2023/04/02 00:59:55;;;;;;;2.20;2.10;;;9.20;99.90;;;;;;5031750;28;20464;-69
2023/04/02 01:02:28;;;;;;;2.30;2.20;;;9.20;99.90;;;;;;5026396;28;20453;-69
2023/04/02 01:04:57;;;;;;;2.50;2.30;;;9.10;99.90;;;;;;5031262;28;20462;-68
2023/04/02 01:07:36;;;;;;;2.47;2.30;;;9.20;99.90;;;;;;5023933;28;20462;-69
2023/04/02 01:10:29;;;;;;;2.70;2.50;;;9.20;99.90;;;;;;5029214;28;20461;-68
2023/04/02 01:13:08;;;;;;;2.90;2.70;;;9.20;99.90;;;;;;5023646;28;20564;-68
2023/04/02 01:15:40;;;;;;;2.37;2.23;;;9.20;99.90;;;;;;5022574;28;20473;-69
2023/04/02 01:18:25;;;;;;;3.03;2.83;;;9.20;99.90;;;;;;5028635;28;20528;-69
2023/04/02 01:21:32;;;;;;;3.20;2.90;;;9.20;99.90;;;;;;5022437;28;20546;-69
2023/04/02 01:24:03;;;;;;;2.97;2.60;;;9.10;99.90;;;;;;5026120;28;20520;-68
2023/04/02 01:26:43;;;;;;;3.20;3.00;;;9.10;99.90;;;;;;5031039;28;20480;-68
2023/04/02 01:29:13;;;;;;;3.30;3.07;;;9.00;99.90;;;;;;5031088;28;20473;-68
2023/04/02 01:31:41;;;;;;;2.97;2.77;;;9.00;99.90;;;;;;5030717;28;20508;-68
2023/04/02 01:34:11;;;;;;;6.27;3.30;;;9.00;99.90;;;;;;5030562;28;20482;-68
2023/04/02 01:36:44;;;;;;;3.00;2.80;;;9.00;99.90;;;;;;5030759;28;20476;-69
2023/04/02 01:39:22;;;;;;;5.67;3.40;;;9.00;99.90;;;;;;5031426;28;20458;-68
2023/04/02 01:41:56;;;;;;;3.50;3.20;;;9.10;99.90;;;;;;5027667;28;20519;-69
2023/04/02 01:44:28;;;;;;;5.10;3.37;;;9.10;99.90;;;;;;5022072;28;20525;-69
2023/04/02 01:46:57;;;;;;;4.40;3.87;;;9.10;99.90;;;;;;5031030;28;20942;-69
2023/04/02 01:49:24;;;;;;;3.27;3.07;;;9.10;99.90;;;;;;5027960;28;20473;-68
2023/04/02 01:51:55;;;;;;;5.00;4.00;;;9.10;99.90;;;;;;5030285;28;20979;-68
2023/04/02 01:54:23;;;;;;;3.80;3.50;;;9.10;99.90;;;;;;5030539;28;20579;-68
2023/04/02 01:56:50;;;;;;;3.53;3.23;;;9.10;99.90;;;;;;5027229;28;20946;-68
2023/04/02 01:59:21;;;;;;;3.57;3.27;;;9.10;99.90;;;;;;5031159;28;20516;-69
2023/04/02 02:01:54;;;;;;;3.07;2.87;;;9.10;99.90;;;;;;5030385;28;20501;-68
2023/04/02 02:04:21;;;;;;;3.90;3.40;;;9.10;99.90;;;;;;5030971;28;20466;-69
2023/04/02 02:06:48;;;;;;;5.43;4.13;;;9.10;99.90;;;;;;5030721;28;20461;-69
2023/04/02 02:09:21;;;;;;;5.30;4.80;;;9.10;99.90;;;;;;5025047;28;21001;-68
2023/04/02 02:11:48;;;;;;;5.00;4.50;;;9.10;99.90;;;;;;5014565;28;20490;-69
2023/04/02 02:14:18;;;;;;;5.27;4.23;;;9.10;99.90;;;;;;5028145;28;20542;-68
2023/04/02 02:16:46;;;;;;;6.70;4.57;;;9.10;99.90;;;;;;5029307;28;20522;-69
2023/04/02 02:19:23;;;;;;;5.23;4.70;;;9.10;99.90;;;;;;5029093;28;20515;-68
2023/04/02 02:21:52;;;;;;;4.90;4.40;;;9.10;99.90;;;;;;5031423;28;20496;-69
2023/04/02 02:24:21;;;;;;;5.30;4.80;;;9.10;99.90;;;;;;5033978;28;20466;-69
2023/04/02 02:26:54;;;;;;;5.50;4.97;;;9.10;99.90;;;;;;5034153;28;20950;-69
2023/04/02 02:29:22;;;;;;;5.37;4.80;;;9.10;99.90;;;;;;5034798;28;20493;-69
2023/04/02 02:31:54;;;;;;;8.40;5.13;;;9.10;99.90;;;;;;5033326;28;20467;-69
2023/04/02 02:34:27;;;;;;;5.73;4.73;;;9.10;99.90;;;;;;5033770;28;20987;-68
2023/04/02 02:36:58;;;;;;;4.93;4.53;;;9.10;99.90;;;;;;5032211;28;20516;-69
2023/04/02 02:39:31;;;;;;;4.70;4.30;;;9.10;99.90;;;;;;5014802;28;20444;-69
2023/04/02 02:42:02;;;;;;;4.40;4.00;;;9.10;99.90;;;;;;5025711;28;20455;-69
2023/04/02 02:44:33;;;;;;;5.37;4.33;;;9.10;99.90;;;;;;5034033;28;20452;-69
2023/04/02 02:47:03;;;;;;;6.30;4.20;;;9.00;99.90;;;;;;5014727;28;20500;-69
2023/04/02 02:49:35;;;;;;;5.20;4.17;;;9.00;99.90;;;;;;5030629;28;20448;-69
2023/04/02 02:52:12;;;;;;;9.10;4.73;;;9.00;99.90;;;;;;5033568;28;20457;-69
2023/04/02 02:54:44;;;;;;;5.03;4.53;;;9.00;99.90;;;;;;5033451;28;20535;-69
2023/04/02 02:57:14;;;;;;;7.23;4.53;;;9.00;99.90;;;;;;5034061;28;20442;-69
2023/04/02 02:59:42;;;;;;;4.97;4.50;;;9.00;99.90;;;;;;5034046;28;20466;-69
2023/04/02 03:02:09;;;;;;;3.90;3.60;;;9.00;99.90;;;;;;5030456;28;20459;-69
2023/04/02 03:04:38;;;;;;;3.90;3.60;;;9.00;99.90;;;;;;5029331;28;20452;-69
2023/04/02 03:07:08;;;;;;;5.20;3.50;;;9.00;99.90;;;;;;5033857;28;20610;-69
2023/04/02 03:09:42;;;;;;;7.03;5.47;;;9.00;99.90;;;;;;5033151;28;20529;-69
2023/04/02 03:12:34;;;;;;;22.73;7.70;;;9.00;99.90;;;;;;5033589;28;20463;-69
2023/04/02 03:15:08;;;;;;;12.20;6.63;;;9.00;99.90;;;;;;5030132;28;20479;-69
2023/04/02 03:17:39;;;;;;;17.17;9.10;;;9.00;99.90;;;;;;5030525;28;20524;-69
2023/04/02 03:20:15;;;;;;;16.57;9.30;;;9.00;99.90;;;;;;5025327;28;20457;-69
2023/04/02 03:22:45;;;;;;;13.17;8.50;;;9.00;99.90;;;;;;5026377;28;20462;-69
2023/04/02 03:25:23;;;;;;;7.40;5.30;;;9.00;99.90;;;;;;5032399;28;20473;-69
2023/04/02 03:27:54;;;;;;;3.70;3.37;;;9.00;99.90;;;;;;5033375;28;20450;-69
2023/04/02 03:30:28;;;;;;;2.73;2.50;;;9.00;99.90;;;;;;5032971;28;20477;-69
2023/04/02 03:33:01;;;;;;;6.03;2.67;;;9.00;99.90;;;;;;5032139;28;20811;-69
2023/04/02 03:35:35;;;;;;;3.80;2.70;;;9.00;99.90;;;;;;5033192;28;21066;-69
2023/04/02 03:38:06;;;;;;;7.13;2.57;;;9.00;99.90;;;;;;5032919;28;20450;-69
2023/04/02 03:40:38;;;;;;;2.47;2.37;;;8.90;99.90;;;;;;5033185;28;20454;-69
2023/04/02 03:43:14;;;;;;;2.63;2.40;;;8.90;99.90;;;;;;5033365;28;20443;-69
2023/04/02 03:45:45;;;;;;;3.77;2.77;;;8.90;99.90;;;;;;5024496;28;20476;-69
2023/04/02 03:48:15;;;;;;;6.03;2.80;;;8.80;99.90;;;;;;5024253;28;20448;-69
2023/04/02 03:50:50;;;;;;;6.30;2.70;;;8.90;99.90;;;;;;5031678;28;20517;-69
2023/04/02 03:53:17;;;;;;;5.43;2.67;;;8.80;99.90;;;;;;5026949;28;20490;-69
2023/04/02 03:55:44;;;;;;;4.57;3.37;;;8.80;99.90;;;;;;5032613;28;20478;-69
2023/04/02 03:58:16;;;;;;;3.63;3.17;;;8.80;99.90;;;;;;5033264;28;20481;-69
2023/04/02 04:00:49;;;;;;;3.00;2.80;;;8.80;99.90;;;;;;5032598;28;20461;-69
2023/04/02 04:03:19;;;;;;;10.00;3.47;;;8.80;99.90;;;;;;5032161;28;20510;-69
2023/04/02 04:05:50;;;;;;;3.30;3.10;;;8.80;99.90;;;;;;5032587;28;20473;-69
2023/04/02 04:08:20;;;;;;;3.67;2.90;;;8.80;99.90;;;;;;5024869;28;20459;-69
2023/04/02 04:10:52;;;;;;;3.50;3.20;;;8.80;99.90;;;;;;5031741;28;20477;-69
2023/04/02 04:13:24;;;;;;;3.20;2.70;;;8.80;99.90;;;;;;5026696;28;20576;-69
2023/04/02 04:15:57;;;;;;;3.30;3.00;;;8.80;99.90;;;;;;5025000;28;20472;-69
2023/04/02 04:18:33;;;;;;;3.40;2.90;;;8.80;99.90;;;;;;5028251;28;20521;-69
2023/04/02 04:21:05;;;;;;;4.40;4.00;;;8.80;99.90;;;;;;5029125;28;20466;-69
2023/04/02 04:23:34;;;;;;;6.83;5.70;;;8.80;99.90;;;;;;5027896;28;20462;-69
2023/04/02 04:26:08;;;;;;;5.73;5.00;;;8.70;99.90;;;;;;5031797;28;20479;-69
2023/04/02 04:28:42;;;;;;;10.20;5.63;;;8.70;99.90;;;;;;5032632;28;20468;-69
2023/04/02 04:31:19;;;;;;;5.50;5.00;;;8.60;99.90;;;;;;5024833;28;20859;-69
2023/04/02 04:33:53;;;;;;;3.87;3.50;;;8.60;99.90;;;;;;5030580;28;21022;-68
2023/04/02 04:36:27;;;;;;;5.83;2.10;;;8.50;99.90;;;;;;5031880;28;20568;-69
2023/04/02 04:38:58;;;;;;;4.70;1.60;;;8.30;99.90;;;;;;5032098;28;20510;-69
2023/04/02 04:41:28;;;;;;;6.10;1.57;;;8.10;99.90;;;;;;5031754;28;20463;-69
2023/04/02 04:44:00;;;;;;;1.50;1.40;;;8.00;99.90;;;;;;5031890;28;20517;-69
2023/04/02 04:46:30;;;;;;;1.73;1.10;;;7.90;99.90;;;;;;5031434;28;20471;-69
2023/04/02 04:49:02;;;;;;;1.37;1.27;;;7.70;99.90;;;;;;5032173;28;20518;-68
2023/04/02 04:51:36;;;;;;;1.43;1.33;;;7.60;99.90;;;;;;5032081;28;20462;-68
2023/04/02 04:54:03;;;;;;;1.33;1.23;;;7.50;99.90;;;;;;5028001;28;21059;-68
2023/04/02 04:56:32;;;;;;;2.07;1.17;;;7.40;99.90;;;;;;5031640;28;20523;-68
2023/04/02 04:59:02;;;;;;;1.20;1.10;;;7.30;99.90;;;;;;5031158;28;20462;-69
2023/04/02 05:01:35;;;;;;;1.50;1.40;;;7.20;99.90;;;;;;5031559;28;20976;-69
2023/04/02 05:04:09;;;;;;;1.10;1.00;;;7.10;99.90;;;;;;5031792;28;20546;-69
2023/04/02 05:06:41;;;;;;;1.20;1.10;;;7.10;99.90;;;;;;5031573;28;20965;-68
2023/04/02 05:09:15;;;;;;;1.30;1.20;;;7.00;99.90;;;;;;5031811;28;21000;-69
2023/04/02 05:11:45;;;;;;;2.23;1.40;;;7.00;99.90;;;;;;5029765;28;21002;-69
2023/04/02 05:14:29;;;;;;;1.17;1.07;;;6.90;99.90;;;;;;5031050;28;20896;-71
2023/04/02 05:17:00;;;;;;;1.33;1.23;;;6.90;99.90;;;;;;5028872;28;20460;-71
2023/04/02 05:19:32;;;;;;;1.10;1.00;;;6.90;99.90;;;;;;5031426;28;20453;-71
2023/04/02 05:22:12;;;;;;;2.70;1.20;;;6.90;99.90;;;;;;5020084;28;20956;-71
2023/04/02 05:24:55;;;;;;;1.20;1.10;;;6.90;99.90;;;;;;5011931;28;20460;-72
2023/04/02 05:27:28;;;;;;;1.30;1.20;;;6.80;99.90;;;;;;5021196;28;20517;-73
2023/04/02 05:30:00;;;;;;;1.77;1.10;;;6.80;99.90;;;;;;5020554;28;20464;-73
2023/04/02 05:32:30;;;;;;;3.77;1.33;;;6.80;99.90;;;;;;5011855;28;20453;-72
2023/04/02 05:34:58;;;;;;;1.30;1.20;;;6.80;99.90;;;;;;5011470;28;20579;-73
2023/04/02 05:37:29;;;;;;;2.40;1.17;;;6.80;99.90;;;;;;5016967;28;20457;-72
2023/04/02 05:39:58;;;;;;;1.43;1.33;;;6.80;99.90;;;;;;5013030;28;20547;-73
2023/04/02 05:42:29;;;;;;;1.80;1.70;;;6.80;99.90;;;;;;5030952;28;20461;-73
2023/04/02 05:45:04;;;;;;;1.97;1.87;;;6.80;99.90;;;;;;5030889;28;20530;-73
2023/04/02 05:47:33;;;;;;;1.70;1.60;;;6.80;99.90;;;;;;5023899;28;20467;-73
2023/04/02 05:50:17;;;;;;;1.77;1.67;;;6.80;99.90;;;;;;5011448;28;20451;-73
2023/04/02 05:52:49;;;;;;;1.50;1.40;;;6.80;99.90;;;;;;5029384;28;20468;-73
2023/04/02 05:55:35;;;;;;;1.40;1.30;;;6.80;99.90;;;;;;5030555;28;20491;-73
2023/04/02 05:58:06;;;;;;;1.30;1.20;;;6.70;99.90;;;;;;5031186;28;20517;-73
2023/04/02 06:01:00;;;;;;;1.50;1.40;;;6.70;99.90;;;;;;5029936;28;20460;-72
2023/04/02 06:03:35;;;;;;;1.43;1.33;;;6.70;99.90;;;;;;5009486;28;20476;-72
2023/04/02 06:06:10;;;;;;;1.33;1.23;;;6.60;99.90;;;;;;5010442;28;20571;-72
2023/04/02 06:08:41;;;;;;;1.83;1.37;;;6.60;99.90;;;;;;5027069;28;20505;-72
2023/04/02 06:11:12;;;;;;;1.50;1.40;;;6.50;99.90;;;;;;5020166;28;20462;-72
2023/04/02 06:13:39;;;;;;;1.33;1.23;;;6.50;99.90;;;;;;5030343;28;20465;-72
2023/04/02 06:16:06;;;;;;;2.30;1.10;;;6.50;99.90;;;;;;5010994;28;20993;-72
2023/04/02 06:18:35;;;;;;;1.30;1.20;;;6.50;99.90;;;;;;5025632;28;20966;-72
2023/04/02 06:21:02;;;;;;;1.30;1.20;;;6.50;99.90;;;;;;5030724;28;20457;-72
2023/04/02 06:23:36;;;;;;;1.50;1.40;;;6.50;99.90;;;;;;5030603;28;20446;-72
2023/04/02 06:26:07;;;;;;;1.50;1.40;;;6.60;99.90;;;;;;5027428;28;20515;-71
2023/04/02 06:28:41;;;;;;;1.40;1.30;;;6.60;99.90;;;;;;5011367;28;20527;-72
2023/04/02 06:31:16;;;;;;;1.70;1.60;;;6.50;99.90;;;;;;5029693;28;20517;-72
2023/04/02 06:33:43;;;;;;;1.70;1.60;;;6.60;99.90;;;;;;5022280;28;20460;-72
2023/04/02 06:36:11;;;;;;;1.80;1.50;;;6.50;99.90;;;;;;5010702;28;20982;-72
2023/04/02 06:38:38;;;;;;;1.70;1.47;;;6.50;99.90;;;;;;5011394;28;20463;-71
2023/04/02 06:41:13;;;;;;;1.80;1.70;;;6.40;99.90;;;;;;5024358;28;20543;-72
2023/04/02 06:43:45;;;;;;;1.90;1.80;;;6.40;99.90;;;;;;5023111;28;20465;-72
2023/04/02 06:46:16;;;;;;;2.40;1.70;;;6.40;99.90;;;;;;5023350;28;20474;-72
2023/04/02 06:48:45;;;;;;;2.10;2.00;;;6.30;99.90;;;;;;5030556;28;20939;-72
2023/04/02 06:51:15;;;;;;;2.73;2.50;;;6.20;99.90;;;;;;5030345;28;20503;-71
2023/04/02 06:53:45;;;;;;;2.20;2.00;;;6.20;99.90;;;;;;5031251;28;20467;-72
2023/04/02 06:56:25;;;;;;;4.87;3.40;;;6.10;99.90;;;;;;5018487;28;20474;-71
2023/04/02 06:58:52;;;;;;;4.67;3.30;;;6.10;99.90;;;;;;5019902;28;20469;-72
2023/04/02 07:01:23;;;;;;;3.87;3.27;;;6.10;99.90;;;;;;5022741;28;20460;-72
2023/04/02 07:03:50;;;;;;;2.13;1.83;;;6.10;99.90;;;;;;5014361;28;20454;-72
2023/04/02 07:06:18;;;;;;;2.27;2.00;;;6.10;99.90;;;;;;5014235;28;20512;-72
2023/04/02 07:08:45;;;;;;;1.77;1.67;;;6.10;99.90;;;;;;5022464;28;20463;-72
2023/04/02 07:11:15;;;;;;;1.63;1.53;;;5.90;99.90;;;;;;5013795;28;21107;-73
2023/04/02 07:13:43;;;;;;;3.97;1.73;;;5.90;99.90;;;;;;5013778;28;20521;-72
2023/04/02 07:16:15;;;;;;;1.60;1.50;;;5.90;99.90;;;;;;5020158;28;20550;-68
2023/04/02 07:18:42;;;;;;;1.45;1.35;;;5.90;99.90;;;;;;5023749;28;20477;-72
2023/04/02 07:21:09;;;;;;;1.40;1.30;;;6.50;99.90;;;;;;5025106;28;20207;-71
2023/04/02 07:23:36;;;;;;;1.50;1.40;;;6.40;99.90;;;;;;5028000;28;20455;-72
2023/04/02 07:26:04;;;;;;;1.60;1.50;;;6.30;99.90;;;;;;5024022;28;20503;-72
2023/04/02 07:28:32;;;;;;;1.53;1.43;;;6.20;99.90;;;;;;5024097;28;20491;-72
2023/04/02 07:30:59;;;;;;;1.80;1.70;;;6.10;99.90;;;;;;5020034;28;20506;-72
2023/04/02 07:33:28;;;;;;;2.03;1.53;;;6.10;99.90;;;;;;5026520;28;20462;-72
2023/04/02 07:35:56;;;;;;;1.60;1.50;;;6.00;99.90;;;;;;5023297;28;20541;-72
2023/04/02 07:38:23;;;;;;;1.70;1.60;;;6.00;99.90;;;;;;5021635;28;20455;-72
2023/04/02 07:40:50;;;;;;;1.83;1.63;;;6.00;99.90;;;;;;5032803;28;20466;-72
2023/04/02 07:43:16;;;;;;;2.50;1.50;;;6.00;99.90;;;;;;5033340;28;20446;-72
2023/04/02 07:45:44;;;;;;;2.47;2.37;;;6.00;99.90;;;;;;5022589;28;20883;-72
2023/04/02 07:48:13;;;;;;;3.07;1.70;;;6.00;99.90;;;;;;5026373;28;20498;-72
2023/04/02 07:50:40;;;;;;;1.90;1.80;;;6.00;99.90;;;;;;5031620;28;20460;-73
2023/04/02 07:53:07;;;;;;;2.07;1.70;;;5.90;99.90;;;;;;5017721;28;20491;-73
2023/04/02 07:55:34;;;;;;;2.00;1.90;;;5.90;99.90;;;;;;5027198;28;20494;-73
2023/04/02 07:58:00;;;;;;;1.83;1.73;;;5.80;99.90;;;;;;5028219;28;20458;-73
2023/04/02 08:00:28;;;;;;;2.17;1.70;;;5.80;99.90;;;;;;5033456;28;20502;-73
2023/04/02 08:02:56;;;;;;;2.00;1.90;;;5.80;99.90;;;;;;5031845;28;20458;-72
2023/04/02 08:05:23;;;;;;;2.30;2.20;;;5.80;99.90;;;;;;5025823;28;20537;-72
2023/04/02 08:07:54;;;;;;;1.97;1.87;;;5.70;99.90;;;;;;5032270;28;20467;-70
2023/04/02 08:10:20;;;;;;;2.43;2.23;;;5.70;99.90;;;;;;5027860;28;20769;-73
2023/04/02 08:12:47;;;;;;;2.50;2.40;;;5.50;99.90;;;;;;5029827;28;20502;-73
2023/04/02 08:15:14;;;;;;;3.10;2.90;;;5.50;99.90;;;;;;5024096;28;20572;-73
2023/04/02 08:17:42;;;;;;;2.60;2.50;;;5.50;99.90;;;;;;5030109;28;20491;-73
2023/04/02 08:20:16;;;;;;;3.37;2.97;;;5.40;99.90;;;;;;5023831;28;20513;-73
2023/04/02 08:22:43;;;;;;;2.90;2.70;;;5.50;99.90;;;;;;5022966;28;20454;-73
2023/04/02 08:25:11;;;;;;;2.97;2.70;;;5.40;99.90;;;;;;5026792;28;20475;-73
2023/04/02 08:27:38;;;;;;;3.20;2.90;;;5.40;99.90;;;;;;5027702;28;20452;-73
2023/04/02 08:30:07;;;;;;;2.90;2.70;;;5.40;99.90;;;;;;5031534;28;20973;-73
2023/04/02 08:32:34;;;;;;;3.73;2.20;;;5.40;99.90;;;;;;5022086;28;20540;-72
2023/04/02 08:35:01;;;;;;;4.00;2.73;;;5.40;99.90;;;;;;5025845;28;20499;-72
2023/04/02 08:37:29;;;;;;;4.20;3.33;;;5.50;99.90;;;;;;5030496;28;20945;-72
2023/04/02 08:39:56;;;;;;;4.73;3.67;;;5.50;99.90;;;;;;5015606;28;20490;-72
2023/04/02 08:42:29;;;;;;;2.80;2.60;;;5.50;99.90;;;;;;5026730;28;20459;-72
2023/04/02 08:45:09;;;;;;;2.97;2.77;;;5.60;99.90;;;;;;5028301;28;20549;-72
2023/04/02 08:47:39;;;;;;;2.77;2.57;;;5.60;99.90;;;;;;5028278;28;20591;-72
2023/04/02 08:50:15;;;;;;;3.07;2.87;;;5.60;99.90;;;;;;5017429;28;20466;-72
2023/04/02 08:52:43;;;;;;;2.60;2.50;;;5.70;99.90;;;;;;5031796;28;20489;-72
2023/04/02 08:55:22;;;;;;;2.90;2.70;;;5.60;99.90;;;;;;5021246;28;20498;-71
2023/04/02 08:57:54;;;;;;;5.50;2.70;;;5.70;99.90;;;;;;5031772;28;20517;-71
2023/04/02 09:00:27;;;;;;;2.83;2.63;;;5.70;99.90;;;;;;5018153;28;20451;-71
2023/04/02 09:02:57;;;;;;;2.77;2.57;;;5.80;99.90;;;;;;5023058;28;20510;-71
2023/04/02 09:05:28;;;;;;;2.50;2.40;;;5.80;99.90;;;;;;5019057;28;20468;-71
2023/04/02 09:07:58;;;;;;;2.40;2.30;;;5.90;99.90;;;;;;5019521;28;20451;-71
2023/04/02 09:10:35;;;;;;;2.60;2.40;;;5.80;99.90;;;;;;5021108;28;20448;-71
2023/04/02 09:13:05;;;;;;;2.90;2.70;;;5.90;99.90;;;;;;5014720;28;20514;-72
2023/04/02 09:15:35;;;;;;;2.63;2.43;;;6.10;99.90;;;;;;5024359;28;20903;-68
2023/04/02 09:18:15;;;;;;;3.30;3.03;;;6.10;99.90;;;;;;5023784;28;21077;-68
2023/04/02 09:20:42;;;;;;;3.60;3.30;;;6.10;99.90;;;;;;5026124;28;20462;-71
2023/04/02 09:23:16;;;;;;;3.30;3.00;;;6.10;99.90;;;;;;5014333;28;20455;-72
2023/04/02 09:25:46;;;;;;;2.90;2.70;;;6.20;99.90;;;;;;5022159;28;20988;-73
2023/04/02 09:28:14;;;;;;;2.47;2.37;;;6.20;99.90;;;;;;5028525;28;20467;-72
2023/04/02 09:30:56;;;;;;;2.53;2.33;;;6.20;99.90;;;;;;5031334;28;20476;-73
2023/04/02 09:33:41;;;;;;;2.20;2.10;;;6.20;99.90;;;;;;5022447;28;20936;-72
2023/04/02 09:36:18;;;;;;;2.60;2.40;;;6.10;99.90;;;;;;5029063;28;20556;-72
2023/04/02 09:39:00;;;;;;;1.90;1.80;;;6.20;99.90;;;;;;5031451;28;20459;-72
2023/04/02 09:41:28;;;;;;;2.47;2.37;;;6.20;99.90;;;;;;5030828;28;20466;-72
2023/04/02 09:44:18;;;;;;;2.77;2.57;;;6.20;99.90;;;;;;5023393;28;20451;-72
2023/04/02 09:46:51;;;;;;;2.40;2.30;;;6.20;99.90;;;;;;5018036;28;20994;-71
2023/04/02 09:49:19;;;;;;;2.37;2.17;;;6.30;99.90;;;;;;5022962;28;20449;-71
2023/04/02 09:51:45;;;;;;;3.00;2.80;;;6.30;99.90;;;;;;5024640;28;20454;-71
2023/04/02 09:54:16;;;;;;;3.90;2.70;;;6.50;99.90;;;;;;5025143;28;20456;-72
2023/04/02 09:57:00;;;;;;;3.53;3.23;;;6.60;99.90;;;;;;5029078;28;20554;-72
2023/04/02 09:59:27;;;;;;;3.83;3.37;;;6.60;99.90;;;;;;5019721;28;20453;-72
2023/04/02 10:02:02;;;;;;;3.17;2.90;;;6.70;99.90;;;;;;5026806;28;20459;-72
2023/04/02 10:04:37;;;;;;;2.93;2.57;;;6.80;99.90;;;;;;5022431;28;20465;-72
2023/04/02 10:07:05;;;;;;;2.93;2.73;;;6.80;99.90;;;;;;5023918;28;20463;-72
2023/04/02 10:09:35;;;;;;;3.00;2.80;;;6.70;99.90;;;;;;5027330;28;20462;-72
2023/04/02 10:12:05;;;;;;;3.10;2.90;;;6.50;99.90;;;;;;5029969;28;20505;-72
2023/04/02 10:14:35;;;;;;;5.93;2.90;;;6.50;99.90;;;;;;5030771;28;20517;-72
2023/04/02 10:17:12;;;;;;;2.87;2.67;;;6.30;99.90;;;;;;5030274;28;20494;-72
2023/04/02 10:19:43;;;;;;;3.00;2.80;;;6.20;99.90;;;;;;5025680;28;20451;-72
2023/04/02 10:22:15;;;;;;;6.13;3.30;;;6.00;99.90;;;;;;5030547;28;20450;-72
2023/04/02 10:24:43;;;;;;;4.30;3.90;;;5.90;99.90;;;;;;5029996;28;20589;-72
2023/04/02 10:27:21;;;;;;;3.37;3.07;;;5.80;99.90;;;;;;5023956;28;20467;-73
2023/04/02 10:30:01;;;;;;;3.90;3.20;;;5.80;99.90;;;;;;5013081;28;20602;-72
2023/04/02 10:32:35;;;;;;;3.00;2.80;;;5.80;99.90;;;;;;5029413;28;20458;-72
2023/04/02 10:35:04;;;;;;;3.00;2.80;;;5.90;99.90;;;;;;5030333;28;20967;-72
2023/04/02 10:37:48;;;;;;;3.50;3.20;;;5.90;99.90;;;;;;5034586;28;20506;-72
2023/04/02 10:40:23;;;;;;;3.13;2.83;;;5.90;99.90;;;;;;5033680;28;20970;-72
2023/04/02 10:42:56;;;;;;;3.27;2.97;;;5.80;99.90;;;;;;5032793;28;20504;-72
2023/04/02 10:45:35;;;;;;;3.40;3.20;;;5.80;99.90;;;;;;5025742;28;20973;-73
2023/04/02 10:48:11;;;;;;;6.70;3.17;;;5.80;99.90;;;;;;5026829;28;20448;-72
2023/04/02 10:50:46;;;;;;;3.67;3.10;;;5.90;99.90;;;;;;5031604;28;20506;-72
2023/04/02 10:53:17;;;;;;;3.37;3.17;;;6.00;99.90;;;;;;5029451;28;20449;-73
2023/04/02 10:55:51;;;;;;;3.70;3.40;;;6.20;99.90;;;;;;5034302;28;20533;-72
2023/04/02 10:58:23;;;;;;;3.13;2.93;;;6.20;99.90;;;;;;5033468;28;20452;-71
2023/04/02 11:00:51;;;;;;;3.23;2.93;;;6.20;99.90;;;;;;5034157;28;20882;-72
2023/04/02 11:03:28;;;;;;;3.37;3.07;;;6.30;99.90;;;;;;5033897;28;20448;-73
2023/04/02 11:05:57;;;;;;;5.03;3.43;;;6.40;99.90;;;;;;5033925;28;20545;-72
2023/04/02 11:08:26;;;;;;;3.47;3.20;;;6.40;99.90;;;;;;5022169;28;20627;-72
2023/04/02 11:10:58;;;;;;;8.70;3.37;;;6.40;99.90;;;;;;5014001;28;20861;-72
2023/04/02 11:13:30;;;;;;;3.80;3.50;;;6.40;99.90;;;;;;5020097;28;20460;-72
2023/04/02 11:15:57;;;;;;;3.83;3.47;;;6.40;99.90;;;;;;5024758;28;20908;-72
2023/04/02 11:18:27;;;;;;;3.60;3.30;;;6.40;99.90;;;;;;5025718;28;20449;-72
2023/04/02 11:21:00;;;;;;;5.23;3.87;;;6.40;99.90;;;;;;5028915;28;20480;-72
2023/04/02 11:23:29;;;;;;;4.60;3.07;;;6.40;99.90;;;;;;5033594;28;20478;-72
2023/04/02 11:26:32;;;;;;;4.13;3.13;;;6.30;99.90;;;;;;5033918;28;20880;-74
2023/04/02 11:29:15;;;;;;;3.93;3.10;;;6.20;99.90;;;;;;5033024;28;20468;-72
2023/04/02 11:31:43;;;;;;;3.87;3.27;;;6.10;99.90;;;;;;5033514;28;20936;-71
2023/04/02 11:34:14;;;;;;;3.63;3.33;;;6.20;99.90;;;;;;5028921;28;20957;-72
2023/04/02 11:37:02;;;;;;;3.37;3.13;;;6.10;99.90;;;;;;5033401;28;20496;-73
2023/04/02 11:39:52;;;;;;;5.60;4.30;;;6.00;99.90;;;;;;5032243;28;21125;-72
2023/04/02 11:42:25;;;;;;;3.77;3.50;;;5.90;99.90;;;;;;5020216;28;20491;-72
2023/04/02 11:44:52;;;;;;;5.30;3.90;;;5.80;99.90;;;;;;5018861;28;20484;-72
2023/04/02 11:47:20;;;;;;;3.80;3.50;;;5.90;99.90;;;;;;5018788;28;21078;-72
2023/04/02 11:50:03;;;;;;;4.30;3.73;;;5.90;99.90;;;;;;5027640;28;20454;-72
2023/04/02 11:52:34;;;;;;;3.73;3.43;;;6.00;99.90;;;;;;5024135;28;20527;-72
2023/04/02 11:55:05;;;;;;;4.10;3.37;;;6.00;99.90;;;;;;5030491;28;20476;-72
2023/04/02 11:57:50;;;;;;;3.40;3.10;;;6.00;99.90;;;;;;5013683;28;20491;-71
2023/04/02 12:00:29;;;;;;;3.60;3.30;;;6.10;99.90;;;;;;5021446;28;20460;-72
2023/04/02 12:03:15;;;;;;;2.83;2.63;;;5.90;99.90;;;;;;5032676;28;20828;-72
2023/04/02 12:05:47;;;;;;;4.50;3.33;;;6.00;99.90;;;;;;5024828;28;20567;-72
2023/04/02 12:08:24;;;;;;;6.17;3.13;;;5.90;99.90;;;;;;5028590;28;20973;-73
2023/04/02 12:10:58;;;;;;;3.70;3.40;;;5.80;99.90;;;;;;5024704;28;20475;-72
2023/04/02 12:13:49;;;;;;;4.80;3.40;;;5.90;99.90;;;;;;5025117;28;20458;-73
2023/04/02 12:16:17;;;;;;;3.90;3.60;;;6.00;99.90;;;;;;5032880;28;20527;-72
2023/04/02 12:18:45;;;;;;;2.97;2.77;;;6.00;99.90;;;;;;5025090;28;20459;-72
2023/04/02 12:21:16;;;;;;;4.20;3.17;;;5.90;99.90;;;;;;5026681;28;20955;-73
2023/04/02 12:23:46;;;;;;;3.10;2.90;;;5.90;99.90;;;;;;5032587;28;20800;-73
2023/04/02 12:26:28;;;;;;;4.20;3.53;;;6.00;99.90;;;;;;5032771;28;20486;-72
2023/04/02 12:29:14;;;;;;;5.37;3.37;;;6.00;99.90;;;;;;5025685;28;20481;-73
2023/04/02 12:31:43;;;;;;;3.23;3.03;;;6.10;99.90;;;;;;5023201;28;20468;-72
2023/04/02 12:34:14;;;;;;;3.13;2.93;;;6.10;99.90;;;;;;5026178;28;20558;-72
2023/04/02 12:36:52;;;;;;;4.00;3.50;;;6.10;99.90;;;;;;5026558;28;20521;-73
2023/04/02 12:39:20;;;;;;;4.10;3.07;;;6.20;99.90;;;;;;5026633;28;20465;-72
2023/04/02 12:41:47;;;;;;;5.30;3.83;;;6.20;99.90;;;;;;5032252;28;20537;-73
2023/04/02 12:44:17;;;;;;;4.93;4.27;;;6.20;99.90;;;;;;5026693;28;20494;-72
2023/04/02 12:46:45;;;;;;;4.47;4.03;;;6.20;99.90;;;;;;5031561;28;20472;-72
2023/04/02 12:49:23;;;;;;;5.17;4.40;;;6.20;99.90;;;;;;5029892;28;20459;-71
2023/04/02 12:51:50;;;;;;;5.20;4.20;;;6.10;99.90;;;;;;5029942;28;20455;-71
2023/04/02 12:54:19;;;;;;;4.63;4.23;;;6.20;99.90;;;;;;5029820;28;20464;-71
2023/04/02 12:56:46;;;;;;;4.10;3.77;;;6.10;99.90;;;;;;5030417;28;20493;-71
2023/04/02 12:59:28;;;;;;;4.50;4.10;;;6.10;99.90;;;;;;5029277;28;20461;-71
2023/04/02 13:01:56;;;;;;;5.03;4.47;;;6.10;99.90;;;;;;5030541;28;20460;-71
2023/04/02 13:04:23;;;;;;;6.17;4.77;;;6.20;99.90;;;;;;5024571;28;20470;-72
2023/04/02 13:06:53;;;;;;;5.10;4.60;;;6.20;99.90;;;;;;5023438;28;20448;-72
2023/04/02 13:09:31;;;;;;;6.33;5.27;;;6.20;99.90;;;;;;5024277;28;20460;-72
2023/04/02 13:11:58;;;;;;;7.60;4.90;;;6.20;99.90;;;;;;5030953;28;20968;-72
2023/04/02 13:14:26;;;;;;;5.43;4.90;;;6.10;99.90;;;;;;5028565;28;20452;-70
2023/04/02 13:16:54;;;;;;;10.33;5.07;;;6.00;99.90;;;;;;5025659;28;20488;-72
2023/04/02 13:19:25;;;;;;;6.27;4.90;;;5.80;99.90;;;;;;5023363;28;20482;-72
2023/04/02 13:21:53;;;;;;;5.60;5.00;;;5.80;99.90;;;;;;5024065;28;20454;-72
2023/04/02 13:24:21;;;;;;;9.50;5.10;;;5.80;99.90;;;;;;5024135;28;20510;-73